Airfield :
LOGIN :

Register | Disclaimer

   EN    FR    IT 

 










Legend :    VFR   Marginal VFR   IFR   Intensive IFR   Very Intensive IFR
Visi :
Ceiling :
>= 8 km
>= 3000ft
5 to 8 km
1000 to 3000 ft
1500m to 5 km
500 to 1000 ft
800 to 1500m
200 to 500 ft
< 800m
< 200 ft
Symbols :   Thunderstorms  Fog  Heavy snow  Heavy precipitations  Wind > 20 kt
SIGMETs :     Misc.  Thunderstorms  Icing  Turbulence  Mountain Waves  Volcanic Ashes






- Airport Elevation : 665 ft
- IATA code : NOC


EIKN - Connaught / Knock- Ireland West

METAR N/A
TAF TAF EIKN
Valid from the 25 at 06:00 until the 26 at 06:00 UTC


250500Z 2506/2606 18013KT 8000 BKN007
TEMPO 2506/2514 18015G25KT
TEMPO 2506/2509 3000 -DZ BR BKN003
PROB30
TEMPO 2506/2509 0400 FG BKN002
BECMG 2509/2511 9999 SCT012 BKN018
TEMPO 2511/2520 -DZ BKN008
BECMG 2515/2517 18016G27KT
BECMG 2521/2523 3000 -RADZ BKN004
TEMPO 2523/2602 0400 FG BKN002
BECMG 2602/2604 21012KT 9999 NSW SCT012 BKN020
TEMPO 2602/2606 -SHRA SCT018CB
BECMG 2604/2606 24012KT



MET'MAP, your aeronautical weather chart ! - Copyright ORBIFLY December 2007 - Disclaimer

ORBIFLY MET'MAP TEAM :

Programming & Development : Alexandra Zaïnal
Concept & original design : Baudouin d'Aumeries
Assistance for programming : Marc-Olivier Méhu
Technical & hardware support : Manuel Goepfert

Contact : metmap@orbifly.com




SOURCES & CREDITS :

   NOAA